Latest Weather Observations for Creal Reef

IDQ60801

Issued at 1:35 am EST Sunday 26 October 2014 (issued every 30 minutes, with the page automatically refreshed every 10 minutes)

About weather observations | Map of weather stations | Latest weather observations for QLD | Other Formats
Station Details ID: 200736 Name: CREAL REEF Lat: -20.53 Lon: 150.38 Height: 1.7 m
Data from the previous 72 hours. | See also: Recent months for locations in Queensland
Date/Time
EST
Temp
°C
App
Temp
°C
Dew
Point
Rel
Hum
%
Delta-T
°C
Wind Press
QNH
hPa
Press
MSL
hPa
Rain
since 9 am
mm
Dir
 
Spd
km/h
Gust
km/h
Spd
kts
Gust
kts
26/01:30am 23.2 - - - - ENE 20 24 11 13 1016.8 - -
26/01:20am 23.0 - - - - E 19 24 10 13 1017.0 1016.9 -
26/01:00am 22.9 - - - - ENE 19 22 10 12 1017.3 - -
26/12:30am 23.0 - - - - ENE 20 28 11 15 1017.6 - -
26/12:20am 23.1 - - - - E 22 - 12 - - 1017.6 -
26/12:00am 23.0 - - - - E 22 26 12 14 1018.0 - -
 
Date/Time
EST
Temp
°C
App
Temp
°C
Dew
Point
Rel
Hum
%
Delta-T
°C
Wind Press
QNH
hPa
Press
MSL
hPa
Rain
since 9 am
mm
Dir
 
Spd
km/h
Gust
km/h
Spd
kts
Gust
kts
25/11:30pm 23.0 - - - - E 22 28 12 15 1018.3 - -
25/11:20pm 23.1 - - - - E 22 - 12 - - 1018.3 -
25/11:00pm 23.2 - - - - E 22 28 12 15 1018.7 - -
25/10:30pm 23.2 - - - - E 26 30 14 16 1018.8 - -
25/10:20pm 23.4 - - - - E 22 - 12 - - 1018.7 -
25/10:00pm 23.4 - - - - E 26 30 14 16 1018.8 - -
25/09:30pm 23.3 - - - - E 24 32 13 17 1018.9 - -
25/09:20pm 23.3 - - - - E 22 - 12 - - 1018.8 -
25/09:00pm 23.3 - - - - E 22 26 12 14 1018.8 - -
25/08:30pm 23.2 - - - - ESE 22 28 12 15 1018.6 - -
25/08:20pm 23.2 - - - - E 22 - 12 - - 1018.5 -
25/08:00pm 23.2 - - - - E 22 26 12 14 1018.4 - -
25/07:30pm 23.2 - - - - E 24 28 13 15 1018.1 - -
25/07:20pm 23.2 - - - - E 26 - 14 - - 1017.9 -
25/07:00pm 23.3 - - - - ESE 26 30 14 16 1017.7 - -
25/06:30pm 23.3 - - - - ESE 26 30 14 16 1017.6 - -
25/06:20pm 23.3 - - - - ESE 26 - 14 - - 1017.4 -
25/06:00pm 23.3 - - - - ESE 28 33 15 18 1017.4 - -
25/05:30pm 23.4 - - - - ESE 26 30 14 16 1017.2 - -
25/05:20pm 23.5 - - - - ESE 26 - 14 - - 1016.9 -
25/05:00pm 23.5 - - - - SE 26 32 14 17 1017.0 - -
25/04:30pm 23.5 - - - - SE 28 32 15 17 1016.8 - -
25/04:20pm 23.6 - - - - SE 26 - 14 - - 1016.6 -
25/04:00pm 23.5 - - - - SE 26 32 14 17 1016.7 - -
25/03:30pm 23.6 - - - - SE 24 28 13 15 1016.9 - -
25/03:20pm 23.5 - - - - SE 26 - 14 - - 1016.8 -
25/03:00pm 23.6 - - - - SE 24 28 13 15 1016.9 - -
25/02:30pm 23.5 - - - - ESE 24 26 13 14 1017.1 - -
25/02:20pm 23.5 - - - - ESE 24 - 13 - - 1017.0 -
25/02:00pm 23.5 - - - - ESE 22 24 12 13 1017.3 - -
25/01:30pm 23.6 - - - - ESE 20 26 11 14 1017.6 - -
25/01:20pm 23.5 - - - - SE 20 - 11 - - 1017.6 -
25/01:00pm 23.5 - - - - SE 20 22 11 12 1017.9 - -
25/12:30pm 23.4 - - - - ESE 19 22 10 12 1018.3 - -
25/12:20pm 23.4 - - - - ESE 20 - 11 - - 1018.3 -
25/12:00pm 23.5 - - - - ESE 17 20 9 11 1018.6 - -
25/11:30am 23.5 - - - - ESE 20 22 11 12 1018.9 - -
25/11:20am 23.5 - - - - ESE 19 - 10 - - 1018.9 -
25/11:00am 23.6 - - - - ESE 19 24 10 13 1019.2 - -
25/10:30am 23.6 - - - - E 20 26 11 14 1019.4 - -
25/10:20am 23.6 - - - - E 20 - 11 - - 1019.3 -
25/10:00am 23.6 - - - - E 20 24 11 13 1019.6 - -
25/09:30am 23.6 - - - - ESE 22 28 12 15 1019.8 - -
25/09:20am 23.6 - - - - E 22 - 12 - - 1019.8 -
25/09:00am 23.6 - - - - E 22 26 12 14 1020.0 - -
25/08:30am 23.5 - - - - ESE 19 24 10 13 1020.1 - -
25/08:20am 23.5 - - - - ESE 20 - 11 - - 1020.0 -
25/08:00am 23.5 - - - - ESE 22 26 12 14 1020.0 - -
25/07:30am 23.4 - - - - ESE 20 24 11 13 1019.9 - -
25/07:20am 23.6 - - - - E 20 - 11 - - 1019.8 -
25/07:00am 23.6 - - - - E 22 26 12 14 1019.7 - -
25/06:30am 23.4 - - - - E 26 28 14 15 1019.2 - -
25/06:20am 23.3 - - - - E 26 - 14 - - 1019.0 -
25/06:00am 23.3 - - - - E 24 28 13 15 1018.8 - -
25/05:30am 23.1 - - - - E 24 30 13 16 1018.5 - -
25/05:20am 23.1 - - - - E 24 - 13 - - 1018.4 -
25/05:00am 23.0 - - - - E 22 28 12 15 1018.3 - -
25/04:30am 23.0 - - - - E 24 28 13 15 1018.0 - -
25/04:20am 23.1 - - - - E 24 - 13 - - 1017.9 -
25/04:00am 23.1 - - - - ESE 24 28 13 15 1017.8 - -
25/03:30am 23.1 - - - - E 20 24 11 13 1017.8 - -
25/03:20am 23.1 - - - - E 22 - 12 - - 1017.7 -
25/03:00am 23.0 - - - - ESE 20 24 11 13 1017.9 - -
25/02:30am 22.7 - - - - E 19 24 10 13 1018.1 - -
25/02:20am 22.5 - - - - ESE 28 - 15 - - 1018.0 -
25/02:00am 23.3 - - - - ESE 20 24 11 13 1018.3 - -
25/01:30am 23.3 - - - - ESE 19 22 10 12 1018.6 - -
25/01:20am 23.4 - - - - ESE 22 - 12 - - 1018.6 -
25/01:00am 23.4 - - - - ESE 20 26 11 14 1018.9 - -
25/12:30am 23.5 - - - - E 26 30 14 16 1019.4 - -
25/12:20am 23.6 - - - - E 24 - 13 - - 1019.3 -
25/12:00am 23.6 - - - - E 22 28 12 15 1019.7 - -
 
Date/Time
EST
Temp
°C
App
Temp
°C
Dew
Point
Rel
Hum
%
Delta-T
°C
Wind Press
QNH
hPa
Press
MSL
hPa
Rain
since 9 am
mm
Dir
 
Spd
km/h
Gust
km/h
Spd
kts
Gust
kts
24/11:30pm 23.5 - - - - E 28 33 15 18 1019.9 - -
24/11:20pm 23.5 - - - - E 30 - 16 - - 1019.8 -
24/11:00pm 23.5 - - - - E 28 33 15 18 1020.1 - -
24/10:30pm 23.6 - - - - E 30 35 16 19 1020.2 - -
24/10:20pm 23.6 - - - - E 32 - 17 - - 1020.1 -
24/10:00pm 23.7 - - - - ESE 33 37 18 20 1020.1 - -
24/09:30pm 23.6 - - - - ESE 32 35 17 19 1019.9 - -
24/09:20pm 23.6 - - - - ESE 30 - 16 - - 1019.8 -
24/09:00pm 23.6 - - - - ESE 30 35 16 19 1019.9 - -
24/08:30pm 23.6 - - - - E 32 35 17 19 1019.7 - -
24/08:20pm 23.7 - - - - ESE 28 - 15 - - 1019.6 -
24/08:00pm 23.2 - - - - ESE 30 35 16 19 1019.5 - -
24/07:30pm 23.1 - - - - SE 33 39 18 21 1019.2 - -
24/07:20pm 23.3 - - - - SE 32 - 17 - - 1019.0 -
24/07:00pm 23.3 - - - - SE 32 35 17 19 1019.1 - -
24/06:30pm 23.2 - - - - SE 30 37 16 20 1018.8 - -
24/06:20pm 23.3 - - - - SE 28 - 15 - - 1018.7 -
24/06:00pm 23.3 - - - - SE 26 30 14 16 1018.6 - -
24/05:30pm 23.3 - - - - SE 28 35 15 19 1018.3 - -
24/05:20pm 23.3 - - - - SE 28 - 15 - - 1018.1 -
24/05:00pm 23.2 - - - - SE 30 35 16 19 1018.0 - -
24/04:30pm 23.3 - - - - SE 32 37 17 20 1017.8 - -
24/04:20pm 23.3 - - - - SE 32 - 17 - - 1017.5 -
24/04:00pm 23.3 - - - - SE 32 37 17 20 1017.5 - -
24/03:30pm 23.4 - - - - SE 30 35 16 19 1017.5 - -
24/03:20pm 23.3 - - - - SE 32 - 17 - - 1017.4 -
24/02:20pm 23.5 - - - - SE 30 - 16 - - 1017.8 -
24/01:30pm 23.3 - - - - SE 30 35 16 19 1018.2 - -
24/01:20pm 23.3 - - - - SE 28 - 15 - - 1018.2 -
24/12:20pm 23.3 - - - - W 20 - 11 - - - -
24/12:00pm 23.5 - - - - SE 26 30 14 16 1019.3 - -
24/11:16am 23.2 - - - - SE 24 - 13 - - 1019.4 -
24/10:20am 23.4 - - - - SE 24 - 13 - - 1019.8 -
24/09:20am 23.2 - - - - SE 22 - 12 - - 1020.1 -
24/08:20am 23.3 - - - - SE 22 - 12 - - 1020.0 -
24/07:20am 23.2 - - - - SE 20 - 11 - - 1019.6 -
24/06:20am 23.2 - - - - ESE 20 - 11 - - 1018.9 -
24/05:20am 22.8 - - - - ESE 20 - 11 - - 1018.3 -
24/04:20am 22.9 - - - - SE 22 - 12 - - 1017.8 -
24/03:20am 22.7 - - - - SE 22 - 12 - - 1017.7 -
24/02:20am 22.8 - - - - ESE 24 - 13 - - 1017.8 -
24/01:20am 22.9 - - - - SE 22 - 12 - - 1018.5 -
24/12:20am 22.9 - - - - SE 22 - 12 - - 1019.2 -
 
Date/Time
EST
Temp
°C
App
Temp
°C
Dew
Point
Rel
Hum
%
Delta-T
°C
Wind Press
QNH
hPa
Press
MSL
hPa
Rain
since 9 am
mm
Dir
 
Spd
km/h
Gust
km/h
Spd
kts
Gust
kts
23/11:20pm 23.1 - - - - ESE 24 - 13 - - 1019.6 -
23/10:20pm 23.1 - - - - SE 28 - 15 - - 1019.5 -
23/09:20pm 23.2 - - - - SE 26 - 14 - - 1019.5 -
23/08:20pm 23.2 - - - - SE 30 - 16 - - 1019.1 -
23/07:20pm 23.3 - - - - SE 30 - 16 - - 1018.6 -
23/06:20pm 23.1 - - - - SE 30 - 16 - - 1018.0 -
23/01:00pm 23.2 - - - - SE 37 43 20 23 1017.5 - -
23/12:30pm 23.0 - - - - SE 35 43 19 23 1018.0 - -
23/12:20pm 23.1 - - - - SE 37 - 20 - - 1017.9 -
23/12:00pm 23.2 - - - - SE 35 43 19 23 1018.3 - -
23/11:30am 23.1 - - - - SE 35 41 19 22 1018.6 - -
23/11:20am 22.9 - - - - SE 37 - 20 - - 1018.5 -
23/10:30am 23.0 - - - - SE 35 41 19 22 1019.1 - -
23/10:20am 23.3 - - - - SE 39 - 21 - - 1019.1 -
23/10:00am 23.0 - - - - SE 35 41 19 22 1019.3 - -
23/09:30am 23.1 - - - - SE 35 41 19 22 1019.3 - -
23/09:20am 23.0 - - - - SE 35 - 19 - - 1019.3 -
23/09:00am 22.9 - - - - SSE 33 43 18 23 1019.3 - -
23/08:30am 23.1 - - - - SSE 33 43 18 23 1019.5 - -
23/08:20am 23.0 - - - - SSE 35 - 19 - - 1019.4 -
23/08:00am 22.9 - - - - SSE 37 46 20 25 1019.3 - -
23/07:30am 23.0 - - - - SSE 39 46 21 25 1019.2 - -
23/07:20am 23.0 - - - - SSE 37 - 20 - - 1019.1 -
23/07:00am 22.9 - - - - SSE 39 48 21 26 1018.8 - -
23/06:30am 23.0 - - - - SSE 35 46 19 25 1018.5 - -
23/06:20am 22.9 - - - - SSE 33 - 18 - - 1018.4 -
23/06:00am 22.8 - - - - SSE 35 44 19 24 1018.3 - -
23/05:30am 22.7 - - - - SSE 39 46 21 25 1017.9 - -
23/05:20am 22.8 - - - - SSE 37 - 20 - - 1017.8 -
23/05:00am 22.8 - - - - SE 39 44 21 24 1017.8 - -
23/04:30am 22.8 - - - - SSE 37 46 20 25 1017.5 - -
23/04:20am 22.5 - - - - SSE 41 - 22 - - 1017.3 -
23/04:00am 22.7 - - - - SSE 35 44 19 24 1017.3 - -
23/03:30am 22.6 - - - - SE 35 39 19 21 1017.4 - -
23/03:20am 22.6 - - - - SE 33 - 18 - - 1017.3 -
23/03:00am 22.4 - - - - SE 33 39 18 21 1017.5 - -
23/02:30am 22.8 - - - - SSE 35 46 19 25 1017.8 - -
23/02:20am 22.9 - - - - SSE 33 - 18 - - 1017.8 -
23/02:00am 23.0 - - - - SE 35 43 19 23 1018.1 - -

Other Formats:

Comma delimited format used in spreadsheet applications
http://www.bom.gov.au/fwo/IDQ60801/IDQ60801.94371.axf

JavaScript Object Notation format (JSON) in row-major order
http://www.bom.gov.au/fwo/IDQ60801/IDQ60801.94371.json